createdAt,value
2023-02-28T00:00:11.149Z,103043.78
2023-02-28T00:02:39.159Z,103038.72
2023-02-28T00:05:08.654Z,103033.34
2023-02-28T00:07:36.990Z,103048.84
2023-02-28T00:10:07.347Z,103042.63
2023-02-28T00:12:35.223Z,103046.72
2023-02-28T00:15:03.888Z,103040.19
2023-02-28T00:17:33.000Z,103040.53
2023-02-28T00:20:05.659Z,103031.44
2023-02-28T00:22:33.374Z,103026.88
2023-02-28T00:25:01.196Z,103030.06
2023-02-28T00:27:28.924Z,103031.78
2023-02-28T00:29:56.675Z,103035.69
2023-02-28T00:32:24.395Z,103021.41
2023-02-28T00:34:53.508Z,103007.09
2023-02-28T00:37:21.243Z,103014.59
2023-02-28T00:39:49.006Z,103024.91
2023-02-28T00:42:16.777Z,103042.66
2023-02-28T00:44:44.508Z,103052.63
2023-02-28T00:47:12.297Z,103056.94
2023-02-28T00:49:40.101Z,103042.63
2023-02-28T00:52:09.209Z,103029.09
2023-02-28T00:54:37.301Z,103009.47
2023-02-28T00:57:05.158Z,103012.34
2023-02-28T00:59:32.903Z,103026.59
2023-02-28T01:02:01.393Z,103016.34
2023-02-28T01:04:31.162Z,103021.41
2023-02-28T01:06:58.939Z,103012.63
2023-02-28T01:09:28.161Z,103007.78
2023-02-28T01:11:55.949Z,102989.50
2023-02-28T01:14:23.690Z,103012.81
2023-02-28T01:16:52.660Z,103013.09
2023-02-28T01:19:20.466Z,103034.38
2023-02-28T01:21:48.265Z,103035.31
2023-02-28T01:24:16.008Z,103032.09
2023-02-28T01:26:45.207Z,103010.00
2023-02-28T01:29:14.206Z,103004.88
2023-02-28T01:31:41.918Z,103012.09
2023-02-28T01:34:11.794Z,103016.44
2023-02-28T01:36:39.541Z,103022.63
2023-02-28T01:39:07.369Z,103026.75
2023-02-28T01:41:36.853Z,103017.03
2023-02-28T01:44:09.320Z,103001.50
2023-02-28T01:46:38.076Z,103025.34
2023-02-28T01:49:10.909Z,103036.66
2023-02-28T01:51:46.644Z,103033.47
2023-02-28T01:54:18.797Z,103053.72
2023-02-28T01:56:51.769Z,103059.78
2023-02-28T01:59:26.783Z,103070.31
2023-02-28T02:01:55.461Z,103060.53
2023-02-28T02:04:25.995Z,103039.19
2023-02-28T02:06:54.103Z,103013.19
2023-02-28T02:09:21.807Z,103000.75
2023-02-28T02:11:49.616Z,103001.53
2023-02-28T02:14:36.558Z,103009.16
2023-02-28T02:17:16.417Z,103023.88
2023-02-28T02:20:19.606Z,103027.91
2023-02-28T02:23:27.766Z,103018.03
2023-02-28T02:25:59.216Z,103024.78
2023-02-28T02:29:02.026Z,103044.78
2023-02-28T02:31:46.024Z,103029.50
2023-02-28T02:34:45.319Z,103019.72
2023-02-28T02:37:29.968Z,103029.75
2023-02-28T02:40:05.648Z,103038.06
2023-02-28T02:42:41.847Z,103029.38
2023-02-28T02:45:16.783Z,103022.25
2023-02-28T02:47:46.020Z,102973.56
2023-02-28T02:50:21.761Z,102944.53
2023-02-28T02:52:53.573Z,102961.97
2023-02-28T02:55:24.679Z,102945.31
2023-02-28T02:57:55.907Z,102916.44
2023-02-28T03:00:28.412Z,102902.38
2023-02-28T03:02:58.257Z,102899.06
2023-02-28T03:05:30.863Z,102906.28
2023-02-28T03:07:58.608Z,102908.28
2023-02-28T03:10:36.258Z,102942.16
2023-02-28T03:13:44.884Z,102974.63
2023-02-28T03:16:38.871Z,102997.88
2023-02-28T03:19:35.466Z,103018.84
2023-02-28T03:22:28.904Z,103029.13
2023-02-28T03:25:02.623Z,103026.84
2023-02-28T03:27:33.279Z,103006.16
2023-02-28T03:30:05.355Z,103010.84
2023-02-28T03:32:39.695Z,103041.38
2023-02-28T03:35:13.096Z,103044.19
2023-02-28T03:37:45.113Z,103050.69
2023-02-28T03:40:16.477Z,103052.34
2023-02-28T03:42:49.569Z,103031.34
2023-02-28T03:45:20.364Z,102995.50
2023-02-28T03:47:53.525Z,102964.03
2023-02-28T03:50:25.659Z,102938.41
2023-02-28T03:53:02.200Z,102933.63
2023-02-28T03:55:35.202Z,102909.44
2023-02-28T03:58:07.645Z,102885.00
2023-02-28T04:00:39.976Z,102867.94
2023-02-28T04:03:08.270Z,102848.84
2023-02-28T04:05:50.117Z,102833.25
2023-02-28T04:08:19.329Z,102839.97
2023-02-28T04:10:53.266Z,102867.19
2023-02-28T04:13:20.996Z,102878.97
2023-02-28T04:15:48.741Z,102891.31
2023-02-28T04:18:16.499Z,102901.00
2023-02-28T04:20:44.234Z,102895.50
2023-02-28T04:23:11.957Z,102918.84
2023-02-28T04:25:41.930Z,102967.22
2023-02-28T04:28:10.708Z,102988.00
2023-02-28T04:30:40.349Z,103010.47
2023-02-28T04:33:08.386Z,103020.00
2023-02-28T04:35:36.126Z,103014.94
2023-02-28T04:38:03.915Z,102993.56
2023-02-28T04:40:31.658Z,103014.38
2023-02-28T04:43:00.747Z,102987.16
2023-02-28T04:45:31.090Z,102982.16
2023-02-28T04:47:58.868Z,102994.34
2023-02-28T04:50:26.587Z,102980.53
2023-02-28T04:52:54.307Z,102975.75
2023-02-28T04:55:22.017Z,102959.25
2023-02-28T04:57:49.768Z,102959.03
2023-02-28T05:00:19.717Z,102931.53
2023-02-28T05:02:47.416Z,102930.63
2023-02-28T05:05:19.048Z,102938.81
2023-02-28T05:07:46.969Z,102949.56
2023-02-28T05:10:14.794Z,102968.75
2023-02-28T05:12:42.552Z,102955.81
2023-02-28T05:15:15.101Z,102976.50
2023-02-28T05:17:44.680Z,102998.91
2023-02-28T05:20:15.598Z,103024.06
2023-02-28T05:22:44.567Z,103011.59
2023-02-28T05:25:15.999Z,103033.69
2023-02-28T05:27:43.750Z,103019.25
2023-02-28T05:30:12.661Z,103002.13
2023-02-28T05:32:43.738Z,102994.72
2023-02-28T05:35:13.744Z,103016.94
2023-02-28T05:37:41.562Z,103010.91
2023-02-28T05:40:11.264Z,102986.75
2023-02-28T05:42:39.154Z,102958.00
2023-02-28T05:45:07.910Z,102958.13
2023-02-28T05:47:35.731Z,102949.16
2023-02-28T05:50:03.616Z,102967.84
2023-02-28T05:52:32.755Z,102977.50
2023-02-28T05:55:03.326Z,102974.03
2023-02-28T05:57:31.107Z,102993.34
2023-02-28T05:59:58.831Z,103020.91
2023-02-28T06:02:26.660Z,103007.75
2023-02-28T06:04:54.458Z,102983.03
2023-02-28T06:07:23.430Z,102971.75
2023-02-28T06:09:52.560Z,102965.63
2023-02-28T06:12:20.294Z,102955.56
2023-02-28T06:14:48.073Z,102949.75
2023-02-28T06:17:15.828Z,102953.50
2023-02-28T06:19:43.547Z,102943.38
2023-02-28T06:22:11.265Z,102942.31
2023-02-28T06:24:39.016Z,102944.94
2023-02-28T06:27:08.094Z,102954.84
2023-02-28T06:29:36.903Z,102950.63
2023-02-28T06:32:04.682Z,102939.88
2023-02-28T06:34:32.462Z,102909.03
2023-02-28T06:37:03.295Z,102916.72
2023-02-28T06:39:31.157Z,102930.81
2023-02-28T06:41:59.007Z,102925.34
2023-02-28T06:44:28.102Z,102930.53
2023-02-28T06:46:55.853Z,102934.50
2023-02-28T06:49:23.680Z,102947.91
2023-02-28T06:51:51.416Z,102949.25
2023-02-28T06:54:19.146Z,102932.09
2023-02-28T06:56:47.755Z,102918.47
2023-02-28T06:59:15.570Z,102922.97
2023-02-28T07:01:45.072Z,102925.25
2023-02-28T07:04:14.158Z,102910.19
2023-02-28T07:06:42.010Z,102920.84
2023-02-28T07:09:10.320Z,102915.81
2023-02-28T07:11:38.047Z,102904.75
2023-02-28T07:14:05.786Z,102918.66
2023-02-28T07:16:33.730Z,102917.72
2023-02-28T07:19:02.819Z,102947.22
2023-02-28T07:21:30.830Z,102963.53
2023-02-28T07:23:58.848Z,102982.97
2023-02-28T07:26:26.675Z,103011.31
2023-02-28T07:28:55.296Z,103026.06
2023-02-28T07:31:23.168Z,103038.19
2023-02-28T07:33:51.019Z,103046.31
2023-02-28T07:36:20.596Z,103033.78
2023-02-28T07:38:51.081Z,103055.34
2023-02-28T07:41:20.397Z,103062.44
2023-02-28T07:43:48.434Z,103072.50
2023-02-28T07:46:18.346Z,103085.06
2023-02-28T07:48:46.780Z,103092.75
2023-02-28T07:51:14.909Z,103087.09
2023-02-28T07:53:44.427Z,103089.22
2023-02-28T07:56:12.576Z,103095.50
2023-02-28T07:58:40.409Z,103103.19
2023-02-28T08:01:09.739Z,103111.59
2023-02-28T08:03:38.826Z,103114.72
2023-02-28T08:06:08.479Z,103091.69
2023-02-28T08:08:36.290Z,103128.72
2023-02-28T08:11:06.053Z,103141.31
2023-02-28T08:13:34.065Z,103162.09
2023-02-28T08:16:04.790Z,103172.56
2023-02-28T08:18:32.585Z,103182.69
2023-02-28T08:21:00.308Z,103194.31
2023-02-28T08:23:28.124Z,103199.59
2023-02-28T08:25:56.638Z,103208.41
2023-02-28T08:28:27.392Z,103224.69
2023-02-28T08:30:55.762Z,103218.63
2023-02-28T08:33:23.858Z,103211.31
2023-02-28T08:35:55.304Z,103225.31
2023-02-28T08:38:23.795Z,103224.22
2023-02-28T08:40:51.743Z,103210.09
2023-02-28T08:43:19.522Z,103221.66
2023-02-28T08:45:48.664Z,103197.44
2023-02-28T08:48:18.654Z,103198.56
2023-02-28T08:50:55.759Z,103204.28
2023-02-28T08:53:33.580Z,103212.25
2023-02-28T08:56:02.814Z,103207.31
2023-02-28T08:58:30.690Z,103208.53
2023-02-28T09:01:00.051Z,103215.81
2023-02-28T09:03:29.413Z,103214.59
2023-02-28T09:05:58.601Z,103213.47
2023-02-28T09:08:27.230Z,103226.44
2023-02-28T09:10:55.471Z,103212.69
2023-02-28T09:13:23.225Z,103214.44
2023-02-28T09:15:50.991Z,103220.06
2023-02-28T09:18:20.306Z,103221.88
2023-02-28T09:20:48.338Z,103218.72
2023-02-28T09:23:16.133Z,103222.69
2023-02-28T09:25:48.615Z,103212.59
2023-02-28T09:28:17.778Z,103209.63
2023-02-28T09:30:48.077Z,103201.78
2023-02-28T09:33:16.426Z,103212.97
2023-02-28T09:35:45.562Z,103213.56
2023-02-28T09:38:13.302Z,103217.47
2023-02-28T09:40:49.100Z,103214.53
2023-02-28T09:43:19.104Z,103221.53
2023-02-28T09:45:59.583Z,103218.81
2023-02-28T09:48:31.604Z,103219.91
2023-02-28T09:51:04.820Z,103213.88
2023-02-28T09:53:35.873Z,103218.41
2023-02-28T09:56:06.769Z,103210.41
2023-02-28T09:58:43.084Z,103208.19
2023-02-28T10:01:21.120Z,103226.75
2023-02-28T10:03:55.836Z,103208.19
2023-02-28T10:06:31.267Z,103223.19
2023-02-28T10:09:03.862Z,103222.25
2023-02-28T10:11:34.454Z,103218.03
2023-02-28T10:14:05.500Z,103234.63
2023-02-28T10:16:38.817Z,103217.22
2023-02-28T10:19:13.980Z,103226.97
2023-02-28T10:21:48.333Z,103224.31
2023-02-28T10:24:23.862Z,103219.13
2023-02-28T10:26:58.087Z,103212.50
2023-02-28T10:29:25.893Z,103218.81
2023-02-28T10:31:53.656Z,103213.41
2023-02-28T10:34:21.428Z,103217.50
2023-02-28T10:36:52.267Z,103207.72
2023-02-28T10:39:40.837Z,103208.38
2023-02-28T10:42:26.885Z,103199.13
2023-02-28T10:45:13.205Z,103197.16
2023-02-28T10:47:53.896Z,103198.25
2023-02-28T10:50:46.850Z,103205.31
2023-02-28T10:53:30.288Z,103203.28
2023-02-28T10:55:59.783Z,103214.47
2023-02-28T10:58:30.122Z,103208.47
2023-02-28T11:00:58.377Z,103203.50
2023-02-28T11:03:32.358Z,103207.47
2023-02-28T11:06:01.088Z,103210.03
2023-02-28T11:08:30.175Z,103205.13
2023-02-28T11:11:00.134Z,103202.94
2023-02-28T11:13:34.916Z,103200.31
2023-02-28T11:16:07.000Z,103196.91
2023-02-28T11:18:43.108Z,103190.56
2023-02-28T11:21:13.727Z,103187.69
2023-02-28T11:23:43.670Z,103191.63
2023-02-28T11:26:12.339Z,103192.28
2023-02-28T11:28:42.244Z,103182.63
2023-02-28T11:31:20.557Z,103174.63
2023-02-28T11:33:51.844Z,103187.69
2023-02-28T11:36:22.794Z,103189.53
2023-02-28T11:38:52.532Z,103196.34
2023-02-28T11:41:46.814Z,103188.47
2023-02-28T11:44:30.931Z,103185.28
2023-02-28T11:47:03.261Z,103181.41
2023-02-28T11:49:40.447Z,103173.28
2023-02-28T11:52:22.731Z,103165.41
2023-02-28T11:55:04.773Z,103159.72
2023-02-28T11:57:40.473Z,103156.72
2023-02-28T12:00:21.843Z,103151.41
2023-02-28T12:03:02.300Z,103135.94
2023-02-28T12:05:36.611Z,103140.00
2023-02-28T12:08:19.983Z,103129.88
2023-02-28T12:11:04.547Z,103136.69
2023-02-28T12:13:43.598Z,103131.19
2023-02-28T12:16:39.450Z,103130.34
2023-02-28T12:19:19.642Z,103126.16
2023-02-28T12:22:14.860Z,103119.28
2023-02-28T12:25:01.448Z,103120.13
2023-02-28T12:27:33.978Z,103111.56
2023-02-28T12:30:08.150Z,103116.16
2023-02-28T12:32:39.425Z,103109.59
2023-02-28T12:35:15.413Z,103109.50
2023-02-28T12:37:47.951Z,103106.78
2023-02-28T12:40:21.238Z,103109.47
2023-02-28T12:42:54.248Z,103103.94
2023-02-28T12:45:25.059Z,103120.38
2023-02-28T12:47:58.851Z,103113.06
2023-02-28T12:50:27.911Z,103112.69
2023-02-28T12:53:01.891Z,103108.66
2023-02-28T12:55:36.007Z,103104.22
2023-02-28T12:58:12.893Z,103119.84
2023-02-28T13:00:54.660Z,103118.56
2023-02-28T13:03:43.942Z,103114.72
2023-02-28T13:06:22.135Z,103114.25
2023-02-28T13:09:02.957Z,103110.44
2023-02-28T13:11:33.167Z,103110.16
2023-02-28T13:14:04.657Z,103123.91
2023-02-28T13:16:58.761Z,103124.44
2023-02-28T13:19:28.221Z,103128.31
2023-02-28T13:21:57.132Z,103114.28
2023-02-28T13:24:44.541Z,103124.38
2023-02-28T13:27:41.506Z,103116.84
2023-02-28T13:30:46.326Z,103121.06
2023-02-28T13:33:25.205Z,103115.03
2023-02-28T13:36:10.149Z,103115.25
2023-02-28T13:38:41.755Z,103108.03
2023-02-28T13:41:47.833Z,103108.69
2023-02-28T13:44:18.249Z,103106.13
2023-02-28T13:47:22.683Z,103105.78
2023-02-28T13:49:53.405Z,103102.69
2023-02-28T13:52:25.861Z,103101.16
2023-02-28T13:55:17.103Z,103102.91
2023-02-28T13:58:01.329Z,103101.25
2023-02-28T14:00:44.171Z,103084.00
2023-02-28T14:03:36.245Z,103089.47
2023-02-28T14:06:24.250Z,103086.69
2023-02-28T14:08:57.328Z,103083.66
2023-02-28T14:11:33.757Z,103091.41
2023-02-28T14:14:02.249Z,103082.44
2023-02-28T14:16:40.320Z,103079.69
2023-02-28T14:19:14.145Z,103067.47
2023-02-28T14:21:53.451Z,103064.63
2023-02-28T14:24:53.200Z,103057.28
2023-02-28T14:27:31.832Z,103068.94
2023-02-28T14:30:43.159Z,103067.56
2023-02-28T14:33:24.548Z,103060.53
2023-02-28T14:36:04.651Z,103060.78
2023-02-28T14:38:38.174Z,103063.03
2023-02-28T14:41:14.905Z,103053.16
2023-02-28T14:43:52.202Z,103053.44
2023-02-28T14:46:21.032Z,103045.56
2023-02-28T14:48:49.480Z,103053.84
2023-02-28T14:51:22.272Z,103042.19
2023-02-28T14:53:55.912Z,103044.66
2023-02-28T14:56:28.726Z,103046.50
2023-02-28T14:58:58.355Z,103036.88
2023-02-28T15:01:27.242Z,103045.06
2023-02-28T15:04:03.821Z,103041.50
2023-02-28T15:06:32.401Z,103047.03
2023-02-28T15:09:12.747Z,103039.84
2023-02-28T15:11:41.621Z,103043.63
2023-02-28T15:14:16.087Z,103037.09
2023-02-28T15:16:46.299Z,103041.97
2023-02-28T15:19:19.991Z,103040.56
2023-02-28T15:21:51.601Z,103035.00
2023-02-28T15:24:25.246Z,103046.38
2023-02-28T15:26:56.813Z,103043.16
2023-02-28T15:29:27.759Z,103035.78
2023-02-28T15:31:59.828Z,103037.38
2023-02-28T15:34:42.344Z,103041.31
2023-02-28T15:37:35.663Z,103036.56
2023-02-28T15:40:15.113Z,103040.25
2023-02-28T15:42:44.712Z,103035.75
2023-02-28T15:45:38.474Z,103037.75
2023-02-28T15:48:14.279Z,103043.59
2023-02-28T15:50:42.675Z,103042.28
2023-02-28T15:53:17.487Z,103034.03
2023-02-28T15:55:47.183Z,103043.13
2023-02-28T15:58:15.961Z,103035.97
2023-02-28T16:00:50.464Z,103038.00
2023-02-28T16:03:29.488Z,103038.78
2023-02-28T16:06:35.311Z,103029.50
2023-02-28T16:09:03.685Z,103052.66
2023-02-28T16:11:35.510Z,103050.34
2023-02-28T16:14:04.068Z,103046.56
2023-02-28T16:16:33.697Z,103053.06
2023-02-28T16:19:01.587Z,103045.22
2023-02-28T16:21:29.596Z,103053.31
2023-02-28T16:23:57.436Z,103057.91
2023-02-28T16:26:28.291Z,103060.88
2023-02-28T16:28:57.465Z,103062.22
2023-02-28T16:31:28.696Z,103056.06
2023-02-28T16:33:58.086Z,103057.00
2023-02-28T16:36:26.969Z,103055.31
2023-02-28T16:38:56.364Z,103056.88
2023-02-28T16:41:26.408Z,103055.25
2023-02-28T16:43:59.739Z,103048.28
2023-02-28T16:46:33.608Z,103048.09
2023-02-28T16:49:01.348Z,103047.09
2023-02-28T16:51:29.459Z,103049.38
2023-02-28T16:53:57.260Z,103055.22
2023-02-28T16:56:27.181Z,103056.50
2023-02-28T16:59:02.648Z,103059.28
2023-02-28T17:01:31.246Z,103066.59
2023-02-28T17:03:59.148Z,103067.59
2023-02-28T17:06:29.574Z,103072.19
2023-02-28T17:08:58.621Z,103076.81
2023-02-28T17:11:27.041Z,103071.84
2023-02-28T17:13:55.595Z,103081.69
2023-02-28T17:16:30.065Z,103079.69
2023-02-28T17:19:00.316Z,103084.13
2023-02-28T17:21:28.311Z,103089.78
2023-02-28T17:23:56.142Z,103089.81
2023-02-28T17:26:25.588Z,103096.88
2023-02-28T17:28:56.604Z,103094.63
2023-02-28T17:31:26.886Z,103086.91
2023-02-28T17:33:55.619Z,103086.81
2023-02-28T17:36:26.832Z,103088.06
2023-02-28T17:38:56.101Z,103092.59
2023-02-28T17:41:24.435Z,103086.84
2023-02-28T17:43:52.341Z,103091.25
2023-02-28T17:46:22.221Z,103088.09
2023-02-28T17:48:52.290Z,103096.97
2023-02-28T17:51:21.752Z,103100.00
2023-02-28T17:53:50.090Z,103095.88
2023-02-28T17:56:20.975Z,103091.31
2023-02-28T17:58:48.857Z,103095.72
2023-02-28T18:01:16.679Z,103096.59
2023-02-28T18:03:44.661Z,103104.97
2023-02-28T18:06:18.927Z,103113.38
2023-02-28T18:08:46.984Z,103117.91
2023-02-28T18:11:22.018Z,103116.84
2023-02-28T18:13:51.971Z,103117.56
2023-02-28T18:16:21.876Z,103115.50
2023-02-28T18:18:50.148Z,103114.00
2023-02-28T18:21:19.582Z,103119.59
2023-02-28T18:23:48.867Z,103103.06
2023-02-28T18:26:17.977Z,103109.50
2023-02-28T18:28:45.975Z,103111.34
2023-02-28T18:31:16.252Z,103110.88
2023-02-28T18:33:46.594Z,103114.88
2023-02-28T18:36:14.645Z,103104.34
2023-02-28T18:38:44.345Z,103107.06
2023-02-28T18:41:12.946Z,103106.38
2023-02-28T18:43:41.300Z,103108.59
2023-02-28T18:46:11.045Z,103109.38
2023-02-28T18:48:39.406Z,103093.66
2023-02-28T18:51:09.854Z,103097.91
2023-02-28T18:53:38.292Z,103085.63
2023-02-28T18:56:09.521Z,103090.88
2023-02-28T18:58:37.417Z,103089.69
2023-02-28T19:01:06.355Z,103083.75
2023-02-28T19:03:34.181Z,103088.28
2023-02-28T19:06:01.939Z,103082.66
2023-02-28T19:08:29.837Z,103090.00
2023-02-28T19:10:57.722Z,103083.19
2023-02-28T19:13:27.009Z,103080.63
2023-02-28T19:16:02.716Z,103078.50
2023-02-28T19:18:30.836Z,103071.88
2023-02-28T19:20:58.663Z,103071.56
2023-02-28T19:23:26.555Z,103063.75
2023-02-28T19:25:55.853Z,103057.28
2023-02-28T19:28:26.493Z,103059.66
2023-02-28T19:30:56.561Z,103064.53
2023-02-28T19:33:24.368Z,103064.97
2023-02-28T19:35:55.212Z,103065.66
2023-02-28T19:38:23.152Z,103063.47
2023-02-28T19:40:51.591Z,103054.75
2023-02-28T19:43:21.740Z,103060.28
2023-02-28T19:45:49.476Z,103061.50
2023-02-28T19:48:18.642Z,103068.44
2023-02-28T19:50:46.360Z,103064.38
2023-02-28T19:53:14.458Z,103067.22
2023-02-28T19:55:42.484Z,103060.91
2023-02-28T19:58:10.783Z,103058.16
2023-02-28T20:00:38.484Z,103060.09
2023-02-28T20:03:06.598Z,103049.91
2023-02-28T20:05:35.667Z,103039.91
2023-02-28T20:08:03.450Z,103046.25
2023-02-28T20:10:32.082Z,103036.88
2023-02-28T20:12:59.814Z,103020.97
2023-02-28T20:15:27.657Z,103028.53
2023-02-28T20:17:57.329Z,103027.78
2023-02-28T20:20:25.120Z,103049.59
2023-02-28T20:22:54.312Z,103061.22
2023-02-28T20:25:22.255Z,103049.59
2023-02-28T20:27:49.988Z,103056.84
2023-02-28T20:30:17.889Z,103049.91
2023-02-28T20:32:45.651Z,103032.59
2023-02-28T20:35:13.830Z,103046.22
2023-02-28T20:37:41.542Z,103046.81
2023-02-28T20:40:12.163Z,103046.41
2023-02-28T20:42:39.900Z,103034.22
2023-02-28T20:45:08.882Z,103022.88
2023-02-28T20:47:36.647Z,103018.09
2023-02-28T20:50:04.611Z,103025.34
2023-02-28T20:52:32.444Z,103050.25
2023-02-28T20:55:00.187Z,103047.59
2023-02-28T20:57:31.418Z,103043.06
2023-02-28T20:59:59.157Z,103057.97
2023-02-28T21:02:26.930Z,103049.31
2023-02-28T21:04:54.674Z,103031.34
2023-02-28T21:07:22.399Z,103026.72
2023-02-28T21:09:50.134Z,103024.81
2023-02-28T21:12:18.512Z,103035.94
2023-02-28T21:14:47.626Z,103033.59
2023-02-28T21:17:15.656Z,103033.41
2023-02-28T21:19:43.388Z,103033.16
2023-02-28T21:22:12.035Z,103040.97
2023-02-28T21:24:40.271Z,103052.84
2023-02-28T21:27:08.000Z,103043.03
2023-02-28T21:29:35.760Z,103041.81
2023-02-28T21:32:06.053Z,103048.22
2023-02-28T21:34:33.808Z,103053.97
2023-02-28T21:37:02.476Z,103054.88
2023-02-28T21:39:30.753Z,103058.19
2023-02-28T21:42:03.906Z,103043.34
2023-02-28T21:44:34.227Z,103023.09
2023-02-28T21:47:02.248Z,103005.19
2023-02-28T21:49:31.795Z,102995.75
2023-02-28T21:52:00.065Z,102986.03
2023-02-28T21:54:27.934Z,102984.72
2023-02-28T21:56:56.721Z,102980.16
2023-02-28T21:59:24.644Z,102972.19
2023-02-28T22:01:54.940Z,102959.91
2023-02-28T22:04:22.811Z,102968.16
2023-02-28T22:06:53.709Z,102976.47
2023-02-28T22:09:22.414Z,102974.09
2023-02-28T22:11:50.367Z,102967.94
2023-02-28T22:14:18.492Z,102969.69
2023-02-28T22:16:55.172Z,102969.47
2023-02-28T22:19:24.249Z,102974.47
2023-02-28T22:21:54.697Z,102975.38
2023-02-28T22:24:24.410Z,102988.66
2023-02-28T22:26:53.142Z,103005.53
2023-02-28T22:29:21.093Z,103000.31
2023-02-28T22:31:49.050Z,103009.13
2023-02-28T22:34:16.971Z,103002.09
2023-02-28T22:36:44.981Z,102996.16
2023-02-28T22:39:14.180Z,102990.19
2023-02-28T22:41:41.927Z,102996.97
2023-02-28T22:44:09.722Z,103002.97
2023-02-28T22:46:37.621Z,102999.25
2023-02-28T22:49:06.335Z,102991.13
2023-02-28T22:51:35.052Z,102985.25
2023-02-28T22:54:03.578Z,102982.78
2023-02-28T22:56:33.060Z,102994.97
2023-02-28T22:59:02.071Z,103002.97
2023-02-28T23:01:32.086Z,102989.00
2023-02-28T23:04:00.654Z,102981.91
2023-02-28T23:06:30.647Z,102976.56
2023-02-28T23:09:01.041Z,102969.31
2023-02-28T23:11:31.213Z,102967.75
2023-02-28T23:14:00.491Z,102977.31
2023-02-28T23:16:30.676Z,102989.81
2023-02-28T23:19:01.929Z,102994.09
2023-02-28T23:21:29.927Z,103003.28
2023-02-28T23:23:57.660Z,102993.84
2023-02-28T23:26:25.479Z,103001.56
2023-02-28T23:28:53.283Z,102989.03
2023-02-28T23:31:22.651Z,102983.38
2023-02-28T23:33:51.152Z,102986.78
2023-02-28T23:36:18.872Z,102975.16
2023-02-28T23:38:49.258Z,102967.94
2023-02-28T23:41:17.730Z,102969.78
2023-02-28T23:43:45.749Z,102978.38
2023-02-28T23:46:15.080Z,102971.41
2023-02-28T23:48:44.782Z,102970.56
2023-02-28T23:51:16.692Z,102976.94
2023-02-28T23:53:46.941Z,102959.34
2023-02-28T23:56:16.703Z,102958.91
2023-02-28T23:58:46.039Z,102950.88
